Observation data for Tulia on 01/21/2019      Previous  Date  Next       Current Mesonet Observations  Soil Data  Daily Summary Page  Observations in Plain Language
KTIS 210600Z 21011KT 04/M06 A2997 RMK A01 T00371063  RH  048%=      5-min Rain = 0
KTIS 210605Z 22012KT 04/M06 A2997 RMK A01 T00361063  RH  048%=      5-min Rain = 0
KTIS 210610Z 21010KT 04/M06 A2997 RMK A01 T00391062  RH  048%=      5-min Rain = 0
KTIS 210615Z 22010KT 04/M06 A2996 RMK A01 T00411062  RH  047%=      5-min Rain = 0
KTIS 210620Z 22010KT 04/M06 A2996 RMK A01 T00401062  RH  047%=      5-min Rain = 0
KTIS 210625Z 22010KT 04/M06 A2996 RMK A01 T00381062  RH  048%=      5-min Rain = 0
KTIS 210630Z 22010KT 04/M06 A2996 RMK A01 T00381062  RH  048%=      5-min Rain = 0
KTIS 210635Z 22009KT 04/M06 A2996 RMK A01 T00371062  RH  048%=      5-min Rain = 0
KTIS 210640Z 22009KT 04/M06 A2996 RMK A01 T00361062  RH  049%=      5-min Rain = 0
KTIS 210645Z 22009KT 03/M06 A2996 RMK A01 T00341062  RH  049%=      5-min Rain = 0
KTIS 210650Z 22009KT 03/M06 A2996 RMK A01 T00311062  RH  050%=      5-min Rain = 0
KTIS 210655Z 21009KT 03/M06 A2996 RMK A01 T00301062  RH  051%=      5-min Rain = 0
KTIS 210700Z 21010KT 03/M06 A2995 RMK A01 T00301062  RH  051%=      5-min Rain = 0
KTIS 210705Z 21010KT 03/M06 A2995 RMK A01 T00291062  RH  051%=      5-min Rain = 0
KTIS 210710Z 20010KT 03/M06 A2995 RMK A01 T00281062  RH  052%=      5-min Rain = 0
KTIS 210715Z 20009KT 03/M06 A2994 RMK A01 T00251062  RH  053%=      5-min Rain = 0
KTIS 210720Z 21009KT 02/M06 A2994 RMK A01 T00221062  RH  054%=      5-min Rain = 0
KTIS 210725Z 21009KT 02/M06 A2994 RMK A01 T00231062  RH  054%=      5-min Rain = 0
KTIS 210730Z 21010KT 02/M06 A2994 RMK A01 T00221062  RH  054%=      5-min Rain = 0
KTIS 210735Z 20009KT 02/M06 A2993 RMK A01 T00221062  RH  054%=      5-min Rain = 0
KTIS 210740Z 20010KT 02/M06 A2993 RMK A01 T00151062  RH  057%=      5-min Rain = 0
KTIS 210745Z 20010KT 01/M06 A2993 RMK A01 T00141061  RH  057%=      5-min Rain = 0
KTIS 210750Z 20009KT 02/M06 A2993 RMK A01 T00171061  RH  056%=      5-min Rain = 0
KTIS 210755Z 20009KT 01/M06 A2993 RMK A01 T00141062  RH  057%=      5-min Rain = 0
KTIS 210800Z 21007KT 02/M06 A2992 RMK A01 T00171061  RH  056%=      5-min Rain = 0
KTIS 210805Z 21006KT 02/M06 A2992 RMK A01 T00181060  RH  056%=      5-min Rain = 0
KTIS 210810Z 22005KT 02/M06 A2992 RMK A01 T00171060  RH  057%=      5-min Rain = 0
KTIS 210815Z 22006KT 02/M06 A2992 RMK A01 T00151060  RH  058%=      5-min Rain = 0
KTIS 210820Z 22007KT 02/M06 A2991 RMK A01 T00161058  RH  058%=      5-min Rain = 0
KTIS 210825Z 22007KT 02/M06 A2991 RMK A01 T00171057  RH  058%=      5-min Rain = 0
KTIS 210830Z 21007KT 02/M06 A2991 RMK A01 T00161056  RH  059%=      5-min Rain = 0
KTIS 210835Z 22006KT 02/M06 A2991 RMK A01 T00161056  RH  059%=      5-min Rain = 0
KTIS 210840Z 24005KT 02/M06 A2991 RMK A01 T00161055  RH  059%=      5-min Rain = 0
KTIS 210845Z 23006KT 02/M06 A2991 RMK A01 T00161055  RH  060%=      5-min Rain = 0
KTIS 210850Z 22007KT 02/M05 A2991 RMK A01 T00171054  RH  059%=      5-min Rain = 0
KTIS 210855Z 23009KT 02/M05 A2991 RMK A01 T00191053  RH  059%=      5-min Rain = 0
KTIS 210900Z 23008KT 02/M05 A2991 RMK A01 T00181054  RH  059%=      5-min Rain = 0
KTIS 210905Z 23008KT 02/M05 A2991 RMK A01 T00171054  RH  059%=      5-min Rain = 0
KTIS 210910Z 23009KT 02/M05 A2991 RMK A01 T00191053  RH  059%=      5-min Rain = 0
KTIS 210915Z 22010KT 02/M05 A2991 RMK A01 T00191053  RH  059%=      5-min Rain = 0
KTIS 210920Z 21009KT 02/M05 A2991 RMK A01 T00201053  RH  059%=      5-min Rain = 0
KTIS 210925Z 22009KT 02/M05 A2991 RMK A01 T00201053  RH  059%=      5-min Rain = 0
KTIS 210930Z 21009KT 02/M05 A299 RMK A01 T00201052  RH  059%=      5-min Rain = 0
KTIS 210935Z 21009KT 02/M05 A299 RMK A01 T00181053  RH  059%=      5-min Rain = 0
KTIS 210940Z 21009KT 02/M05 A2989 RMK A01 T00161053  RH  060%=      5-min Rain = 0
KTIS 210945Z 21011KT 02/M05 A2989 RMK A01 T00181054  RH  059%=      5-min Rain = 0
KTIS 210950Z 21011KT 02/M05 A2989 RMK A01 T00161054  RH  059%=      5-min Rain = 0
KTIS 210955Z 21011KT 01/M06 A2988 RMK A01 T00141055  RH  060%=      5-min Rain = 0
KTIS 211000Z 21010KT 02/M06 A2988 RMK A01 T00151056  RH  059%=      5-min Rain = 0
KTIS 211005Z 21011KT 02/M06 A2988 RMK A01 T00151057  RH  059%=      5-min Rain = 0
KTIS 211010Z 21011KT 02/M06 A2988 RMK A01 T00171058  RH  058%=      5-min Rain = 0
KTIS 211015Z 21013KT 02/M06 A2987 RMK A01 T00181058  RH  057%=      5-min Rain = 0
KTIS 211020Z 21012KT 02/M06 A2987 RMK A01 T00181059  RH  056%=      5-min Rain = 0
KTIS 211025Z 21013KT 02/M06 A2987 RMK A01 T00201060  RH  056%=      5-min Rain = 0
KTIS 211030Z 21014KT 02/M06 A2987 RMK A01 T00211060  RH  055%=      5-min Rain = 0
KTIS 211035Z 21014KT 02/M06 A2986 RMK A01 T00221060  RH  054%=      5-min Rain = 0
KTIS 211040Z 20014KT 02/M06 A2986 RMK A01 T00221060  RH  054%=      5-min Rain = 0
KTIS 211045Z 20014KT 02/M06 A2986 RMK A01 T00211060  RH  055%=      5-min Rain = 0
KTIS 211050Z 20015KT 02/M06 A2986 RMK A01 T00231059  RH  055%=      5-min Rain = 0
KTIS 211055Z 20015KT 02/M06 A2986 RMK A01 T00191057  RH  057%=      5-min Rain = 0
KTIS 211100Z 20014KT 02/M06 A2986 RMK A01 T00171056  RH  058%=      5-min Rain = 0
KTIS 211105Z 20014KT 01/M06 A2986 RMK A01 T00121056  RH  061%=      5-min Rain = 0
KTIS 211110Z 20014KT 01/M06 A2986 RMK A01 T00101055  RH  062%=      5-min Rain = 0
KTIS 211115Z 21013KT 01/M06 A2985 RMK A01 T00091056  RH  062%=      5-min Rain = 0
KTIS 211120Z 21014KT 01/M06 A2986 RMK A01 T00121056  RH  060%=      5-min Rain = 0
KTIS 211125Z 21014KT 02/M06 A2986 RMK A01 T00151057  RH  059%=      5-min Rain = 0
KTIS 211130Z 21014KT 01/M06 A2986 RMK A01 T00141058  RH  059%=      5-min Rain = 0
KTIS 211135Z 21015KT 02/M06 A2985 RMK A01 T00171060  RH  057%=      5-min Rain = 0
KTIS 211140Z 21015KT 02/M06 A2985 RMK A01 T00181061  RH  056%=      5-min Rain = 0
KTIS 211145Z 21014KT 02/M06 A2985 RMK A01 T00191061  RH  055%=      5-min Rain = 0
KTIS 211150Z 21014KT 02/M06 A2985 RMK A01 T00181062  RH  055%=      5-min Rain = 0
KTIS 211155Z 20015KT 02/M06 A2984 RMK A01 T00201063  RH  054%=      5-min Rain = 0
KTIS 211200Z 20015KT 02/M06 A2984 RMK A01 T00221064  RH  053%=      5-min Rain = 0
KTIS 211205Z 21015KT 02/M07 A2984 RMK A01 T00241065  RH  052%=      5-min Rain = 0
KTIS 211210Z 20014KT 02/M07 A2984 RMK A01 T00241065  RH  052%=      5-min Rain = 0
KTIS 211215Z 20013KT 02/M07 A2984 RMK A01 T00201065  RH  053%=      5-min Rain = 0
KTIS 211220Z 20013KT 02/M06 A2984 RMK A01 T00161064  RH  055%=      5-min Rain = 0
KTIS 211225Z 20014KT 02/M06 A2983 RMK A01 T00171064  RH  055%=      5-min Rain = 0
KTIS 211230Z 20014KT 02/M07 A2983 RMK A01 T00211065  RH  053%=      5-min Rain = 0
KTIS 211235Z 21014KT 03/M07 A2983 RMK A01 T00261066  RH  051%=      5-min Rain = 0
KTIS 211240Z 21014KT 03/M07 A2983 RMK A01 T00311067  RH  049%=      5-min Rain = 0
KTIS 211245Z 21015KT 03/M07 A2983 RMK A01 T00341066  RH  048%=      5-min Rain = 0
KTIS 211250Z 21015KT 03/M07 A2983 RMK A01 T00341066  RH  048%=      5-min Rain = 0
KTIS 211255Z 21015KT 03/M07 A2983 RMK A01 T00341066  RH  048%=      5-min Rain = 0
KTIS 211300Z 22014G19KT 03/M07 A2984 RMK A01 T00341066  RH  048%=      5-min Rain = 0
KTIS 211305Z 21014KT 03/M07 A2984 RMK A01 T00321066  RH  049%=      5-min Rain = 0
KTIS 211310Z 21015KT 03/M07 A2984 RMK A01 T00321067  RH  048%=      5-min Rain = 0
KTIS 211315Z 22015KT 03/M07 A2984 RMK A01 T00331067  RH  048%=      5-min Rain = 0
KTIS 211320Z 22015KT 03/M07 A2984 RMK A01 T00341066  RH  048%=      5-min Rain = 0
KTIS 211325Z 22016KT 04/M07 A2984 RMK A01 T00361066  RH  047%=      5-min Rain = 0
KTIS 211330Z 21016KT 04/M07 A2984 RMK A01 T00361065  RH  047%=      5-min Rain = 0
KTIS 211335Z 22015KT 03/M07 A2984 RMK A01 T00341065  RH  048%=      5-min Rain = 0
KTIS 211340Z 22014KT 03/M07 A2984 RMK A01 T00331065  RH  048%=      5-min Rain = 0
KTIS 211345Z 22013KT 03/M07 A2984 RMK A01 T00311065  RH  049%=      5-min Rain = 0
KTIS 211350Z 22013KT 03/M07 A2984 RMK A01 T00291065  RH  050%=      5-min Rain = 0
KTIS 211355Z 21014KT 03/M06 A2984 RMK A01 T00261064  RH  051%=      5-min Rain = 0
KTIS 211400Z 20014KT 03/M07 A2984 RMK A01 T00251065  RH  052%=      5-min Rain = 0
KTIS 211405Z 20013KT 02/M06 A2983 RMK A01 T00221063  RH  053%=      5-min Rain = 0
KTIS 211410Z 20013KT 02/M06 A2983 RMK A01 T00201063  RH  054%=      5-min Rain = 0
KTIS 211415Z 20013KT 02/M06 A2983 RMK A01 T00201063  RH  054%=      5-min Rain = 0
KTIS 211420Z 21014KT 02/M06 A2983 RMK A01 T00191063  RH  055%=      5-min Rain = 0
KTIS 211425Z 21013KT 02/M06 A2982 RMK A01 T00201063  RH  054%=      5-min Rain = 0
KTIS 211430Z 21012KT 02/M06 A2982 RMK A01 T00221063  RH  054%=      5-min Rain = 0
KTIS 211435Z 20012KT 02/M06 A2982 RMK A01 T00221062  RH  054%=      5-min Rain = 0
KTIS 211440Z 20014KT 02/M06 A2981 RMK A01 T00221061  RH  054%=      5-min Rain = 0
KTIS 211445Z 21014KT 03/M06 A2982 RMK A01 T00251061  RH  053%=      5-min Rain = 0
KTIS 211450Z 22015KT 03/M06 A2982 RMK A01 T00311062  RH  051%=      5-min Rain = 0
KTIS 211455Z 22013KT 03/M06 A2982 RMK A01 T00331061  RH  050%=      5-min Rain = 0
KTIS 211500Z 22013KT 04/M06 A2982 RMK A01 T00371061  RH  049%=      5-min Rain = 0
KTIS 211505Z 22013KT 04/M06 A2982 RMK A01 T00411060  RH  048%=      5-min Rain = 0
KTIS 211510Z 22013KT 04/M06 A2982 RMK A01 T00431059  RH  047%=      5-min Rain = 0
KTIS 211515Z 21014KT 05/M06 A2982 RMK A01 T00451058  RH  047%=      5-min Rain = 0
KTIS 211520Z 21014KT 05/M06 A2982 RMK A01 T00471057  RH  047%=      5-min Rain = 0
KTIS 211525Z 21014G19KT 05/M06 A2982 RMK A01 T00491055  RH  047%=      5-min Rain = 0
KTIS 211530Z 21015KT 05/M05 A2982 RMK A01 T00531054  RH  046%=      5-min Rain = 0
KTIS 211535Z 21015KT 06/M05 A2982 RMK A01 T00561053  RH  045%=      5-min Rain = 0
KTIS 211540Z 21013KT 06/M05 A2981 RMK A01 T00571052  RH  046%=      5-min Rain = 0
KTIS 211545Z 21011KT 06/M05 A2981 RMK A01 T00581050  RH  046%=      5-min Rain = 0
KTIS 211550Z 20011KT 06/M05 A2981 RMK A01 T00601048  RH  046%=      5-min Rain = 0
KTIS 211555Z 21011KT 06/M05 A2981 RMK A01 T00641046  RH  045%=      5-min Rain = 0
KTIS 211600Z 21011KT 07/M05 A2981 RMK A01 T00661045  RH  045%=      5-min Rain = 0
KTIS 211605Z 21011KT 07/M05 A2981 RMK A01 T00691045  RH  044%=      5-min Rain = 0
KTIS 211610Z 21011KT 07/M05 A2981 RMK A01 T00721045  RH  043%=      5-min Rain = 0
KTIS 211615Z 21012KT 08/M04 A298 RMK A01 T00771044  RH  042%=      5-min Rain = 0
KTIS 211620Z 21014KT 09/M05 A298 RMK A01 T00861045  RH  039%=      5-min Rain = 0
KTIS 211625Z 21014KT 09/M05 A298 RMK A01 T00931046  RH  037%=      5-min Rain = 0
KTIS 211630Z 21015KT 10/M05 A298 RMK A01 T01001048  RH  035%=      5-min Rain = 0
KTIS 211635Z 21015KT 11/M05 A2979 RMK A01 T01051049  RH  034%=      5-min Rain = 0
KTIS 211640Z 21016KT 11/M05 A2979 RMK A01 T01101050  RH  032%=      5-min Rain = 0
KTIS 211645Z 22016KT 11/M05 A298 RMK A01 T01081053  RH  032%=      5-min Rain = 0
KTIS 211650Z 22016KT 11/M05 A298 RMK A01 T01091052  RH  032%=      5-min Rain = 0
KTIS 211655Z 23015G22KT 11/M05 A298 RMK A01 T01111051  RH  032%=      5-min Rain = 0
KTIS 211700Z 23016KT 11/M05 A298 RMK A01 T01121050  RH  032%=      5-min Rain = 0
KTIS 211705Z 23016G21KT 11/M05 A298 RMK A01 T01141049  RH  032%=      5-min Rain = 0
KTIS 211710Z 23016G23KT 12/M05 A298 RMK A01 T01161050  RH  031%=      5-min Rain = 0
KTIS 211715Z 23017G22KT 12/M05 A298 RMK A01 T01171050  RH  031%=      5-min Rain = 0
KTIS 211720Z 22018G23KT 12/M05 A298 RMK A01 T01221050  RH  030%=      5-min Rain = 0
KTIS 211725Z 23018G25KT 12/M05 A2979 RMK A01 T01221050  RH  030%=      5-min Rain = 0
KTIS 211730Z 22018KT 12/M05 A2979 RMK A01 T01241049  RH  030%=      5-min Rain = 0
KTIS 211735Z 23020G25KT 13/M05 A2979 RMK A01 T01281050  RH  029%=      5-min Rain = 0
KTIS 211740Z 23017G22KT 13/M05 A2979 RMK A01 T01311047  RH  029%=      5-min Rain = 0
KTIS 211745Z 22016KT 14/M04 A2978 RMK A01 T01371044  RH  028%=      5-min Rain = 0
KTIS 211750Z 23017G22KT 14/M04 A2978 RMK A01 T01421042  RH  028%=      5-min Rain = 0
KTIS 211755Z 23019G24KT 14/M05 A2978 RMK A01 T01421045  RH  027%=      5-min Rain = 0
KTIS 211800Z 23016G23KT 15/M04 A2978 RMK A01 T01481040  RH  027%=      5-min Rain = 0
KTIS 211805Z 23016KT 16/M04 A2977 RMK A01 T01551036  RH  027%=      5-min Rain = 0
KTIS 211810Z 22016KT 16/M04 A2977 RMK A01 T01581036  RH  026%=      5-min Rain = 0
KTIS 211815Z 23016G22KT 16/M04 A2976 RMK A01 T01621037  RH  025%=      5-min Rain = 0
KTIS 211820Z 22018G24KT 17/M04 A2976 RMK A01 T01691037  RH  024%=      5-min Rain = 0
KTIS 211825Z 23019KT 17/M04 A2976 RMK A01 T01711039  RH  024%=      5-min Rain = 0
KTIS 211830Z 22019G24KT 17/M04 A2976 RMK A01 T01691041  RH  024%=      5-min Rain = 0
KTIS 211835Z 23017KT 18/M04 A2976 RMK A01 T01751036  RH  023%=      5-min Rain = 0
KTIS 211840Z 22016G21KT 18/M04 A2975 RMK A01 T01821035  RH  023%=      5-min Rain = 0
KTIS 211845Z 22018G23KT 18/M04 A2975 RMK A01 T01821037  RH  022%=      5-min Rain = 0
KTIS 211850Z 21019G24KT 18/M04 A2974 RMK A01 T01831041  RH  022%=      5-min Rain = 0
KTIS 211855Z 22018G24KT 19/M04 A2974 RMK A01 T01891039  RH  021%=      5-min Rain = 0
KTIS 211900Z 22019KT 20/M04 A2974 RMK A01 T01951040  RH  020%=      5-min Rain = 0
KTIS 211905Z 22016G22KT 19/M04 A2973 RMK A01 T01941040  RH  020%=      5-min Rain = 0
KTIS 211910Z 22019G25KT 20/M04 A2973 RMK A01 T01961043  RH  020%=      5-min Rain = 0
KTIS 211915Z 22018G23KT 20/M04 A2972 RMK A01 T01991042  RH  019%=      5-min Rain = 0
KTIS 211920Z 21018G24KT 21/M04 A2971 RMK A01 T02051042  RH  019%=      5-min Rain = 0
KTIS 211925Z 20018G24KT 20/M04 A2971 RMK A01 T02031044  RH  019%=      5-min Rain = 0
KTIS 211930Z 21019KT 21/M04 A297 RMK A01 T02121043  RH  018%=      5-min Rain = 0
KTIS 211935Z 21018G24KT 22/M05 A297 RMK A01 T02151045  RH  017%=      5-min Rain = 0
KTIS 211940Z 21017G24KT 22/M05 A2969 RMK A01 T02211045  RH  017%=      5-min Rain = 0
KTIS 211945Z 21019G25KT 22/M05 A2969 RMK A01 T02231048  RH  016%=      5-min Rain = 0
KTIS 211950Z 20019KT 22/M05 A2968 RMK A01 T02241047  RH  016%=      5-min Rain = 0
KTIS 211955Z 21020KT 22/M05 A2968 RMK A01 T02241048  RH  016%=      5-min Rain = 0
KTIS 212000Z 21020G27KT 23/M05 A2967 RMK A01 T02271048  RH  016%=      5-min Rain = 0
KTIS 212005Z 21021G27KT 23/M05 A2967 RMK A01 T02291051  RH  015%=      5-min Rain = 0
KTIS 212010Z 21022G27KT 23/M05 A2967 RMK A01 T02271051  RH  015%=      5-min Rain = 0
KTIS 212015Z 21022G29KT 23/M05 A2966 RMK A01 T02271051  RH  015%=      5-min Rain = 0
KTIS 212020Z 21020G27KT 23/M05 A2966 RMK A01 T02291048  RH  015%=      5-min Rain = 0
KTIS 212025Z 21021G29KT 23/M05 A2966 RMK A01 T02291052  RH  015%=      5-min Rain = 0
KTIS 212030Z 21023G30KT 23/M05 A2966 RMK A01 T02281054  RH  015%=      5-min Rain = 0
KTIS 212035Z 21022G27KT 23/M05 A2966 RMK A01 T02271054  RH  015%=      5-min Rain = 0
KTIS 212040Z 22020G26KT 23/M06 A2966 RMK A01 T02281055  RH  015%=      5-min Rain = 0
KTIS 212045Z 22021G27KT 23/M06 A2965 RMK A01 T02271058  RH  014%=      5-min Rain = 0
KTIS 212050Z 22020G26KT 23/M05 A2965 RMK A01 T02271054  RH  015%=      5-min Rain = 0
KTIS 212055Z 22019G27KT 23/M05 A2965 RMK A01 T02301054  RH  015%=      5-min Rain = 0
KTIS 212100Z 21019G25KT 23/M06 A2965 RMK A01 T02291058  RH  014%=      5-min Rain = 0
KTIS 212105Z 23017G27KT 23/M06 A2965 RMK A01 T02281057  RH  014%=      5-min Rain = 0
KTIS 212110Z 21016G22KT 23/M06 A2965 RMK A01 T02271055  RH  015%=      5-min Rain = 0
KTIS 212115Z 21016G21KT 23/M05 A2965 RMK A01 T02261053  RH  015%=      5-min Rain = 0
KTIS 212120Z 21017G24KT 23/M05 A2965 RMK A01 T02251051  RH  015%=      5-min Rain = 0
KTIS 212125Z 22019KT 23/M06 A2964 RMK A01 T02251055  RH  015%=      5-min Rain = 0
KTIS 212130Z 22017G22KT 23/M06 A2964 RMK A01 T02261057  RH  015%=      5-min Rain = 0
KTIS 212135Z 22015G20KT 23/M06 A2964 RMK A01 T02281055  RH  015%=      5-min Rain = 0
KTIS 212140Z 22018G23KT 23/M06 A2964 RMK A01 T02271059  RH  014%=      5-min Rain = 0
KTIS 212145Z 22018G25KT 23/M06 A2963 RMK A01 T02261060  RH  014%=      5-min Rain = 0
KTIS 212150Z 22018G23KT 23/M06 A2963 RMK A01 T02271060  RH  014%=      5-min Rain = 0
KTIS 212155Z 22018KT 23/M06 A2963 RMK A01 T02251062  RH  014%=      5-min Rain = 0
KTIS 212200Z 22017G24KT 23/M06 A2963 RMK A01 T02251059  RH  014%=      5-min Rain = 0
KTIS 212205Z 21017G25KT 23/M05 A2963 RMK A01 T02251049  RH  016%=      5-min Rain = 0
KTIS 212210Z 21017G23KT 22/M05 A2963 RMK A01 T02241052  RH  015%=      5-min Rain = 0
KTIS 212215Z 22015G20KT 22/M05 A2963 RMK A01 T02241052  RH  015%=      5-min Rain = 0
KTIS 212220Z 22018G26KT 22/M06 A2962 RMK A01 T02241056  RH  015%=      5-min Rain = 0
KTIS 212225Z 22018G23KT 22/M06 A2963 RMK A01 T02221059  RH  015%=      5-min Rain = 0
KTIS 212230Z 22018G23KT 22/M06 A2963 RMK A01 T02231056  RH  015%=      5-min Rain = 0
KTIS 212235Z 22017G23KT 22/M06 A2963 RMK A01 T02201059  RH  015%=      5-min Rain = 0
KTIS 212240Z 22019KT 22/M06 A2962 RMK A01 T02171062  RH  015%=      5-min Rain = 0
KTIS 212245Z 22015KT 22/M06 A2962 RMK A01 T02151059  RH  015%=      5-min Rain = 0
KTIS 212250Z 21014KT 21/M06 A2962 RMK A01 T02111057  RH  016%=      5-min Rain = 0
KTIS 212255Z 21014KT 21/M06 A2962 RMK A01 T02081055  RH  017%=      5-min Rain = 0
KTIS 212300Z 20013KT 20/M05 A2962 RMK A01 T02021051  RH  018%=      5-min Rain = 0
KTIS 212305Z 20014G20KT 20/M05 A2962 RMK A01 T02011054  RH  017%=      5-min Rain = 0
KTIS 212310Z 20014KT 20/M05 A2962 RMK A01 T02001054  RH  018%=      5-min Rain = 0
KTIS 212315Z 20015G20KT 20/M06 A2962 RMK A01 T01971056  RH  018%=      5-min Rain = 0
KTIS 212320Z 20015G20KT 20/M06 A2961 RMK A01 T01961056  RH  018%=      5-min Rain = 0
KTIS 212325Z 20016KT 20/M06 A2961 RMK A01 T01961057  RH  017%=      5-min Rain = 0
KTIS 212330Z 20014KT 20/M06 A2961 RMK A01 T01951058  RH  018%=      5-min Rain = 0
KTIS 212335Z 20013KT 19/M06 A2961 RMK A01 T01941058  RH  018%=      5-min Rain = 0
KTIS 212340Z 20012KT 19/M06 A2961 RMK A01 T01881056  RH  019%=      5-min Rain = 0
KTIS 212345Z 20015KT 19/M06 A2961 RMK A01 T01861057  RH  019%=      5-min Rain = 0
KTIS 212350Z 20017KT 19/M06 A2961 RMK A01 T01871058  RH  018%=      5-min Rain = 0
KTIS 212355Z 21017G22KT 19/M06 A2961 RMK A01 T01891060  RH  018%=      5-min Rain = 0
KTIS 220000Z 21018KT 19/M06 A2961 RMK A01 T01891060  RH  018%=      5-min Rain = 0
KTIS 220005Z 21017KT 19/M06 A2962 RMK A01 T01881061  RH  018%=      5-min Rain = 0
KTIS 220010Z 21015KT 19/M06 A2962 RMK A01 T01871061  RH  018%=      5-min Rain = 0
KTIS 220015Z 21015G20KT 19/M06 A2962 RMK A01 T01851061  RH  018%=      5-min Rain = 0
KTIS 220020Z 21013KT 18/M06 A2962 RMK A01 T01821060  RH  019%=      5-min Rain = 0
KTIS 220025Z 20012KT 18/M06 A2962 RMK A01 T01771060  RH  019%=      5-min Rain = 0
KTIS 220030Z 20012KT 17/M06 A2962 RMK A01 T01711060  RH  020%=      5-min Rain = 0
KTIS 220035Z 21013KT 17/M06 A2961 RMK A01 T01731061  RH  020%=      5-min Rain = 0
KTIS 220040Z 21013KT 18/M06 A2961 RMK A01 T01761061  RH  019%=      5-min Rain = 0
KTIS 220045Z 20013KT 17/M06 A2961 RMK A01 T01721061  RH  020%=      5-min Rain = 0
KTIS 220050Z 20013KT 17/M06 A2961 RMK A01 T01661060  RH  021%=      5-min Rain = 0
KTIS 220055Z 19014KT 16/M06 A2961 RMK A01 T01641061  RH  021%=      5-min Rain = 0
KTIS 220100Z 19014KT 16/M06 A2961 RMK A01 T01641061  RH  021%=      5-min Rain = 0
KTIS 220105Z 17012KT 16/M06 A2961 RMK A01 T01581060  RH  022%=      5-min Rain = 0
KTIS 220110Z 17013KT 15/M06 A2961 RMK A01 T01521059  RH  023%=      5-min Rain = 0
KTIS 220115Z 18012KT 15/M06 A2961 RMK A01 T01501055  RH  024%=      5-min Rain = 0
KTIS 220120Z 18012KT 15/M06 A2961 RMK A01 T01481055  RH  024%=      5-min Rain = 0
KTIS 220125Z 18012KT 15/M05 A2961 RMK A01 T01481054  RH  024%=      5-min Rain = 0
KTIS 220130Z 18013KT 15/M05 A296 RMK A01 T01461051  RH  025%=      5-min Rain = 0
KTIS 220135Z 18014KT 15/M05 A296 RMK A01 T01471050  RH  025%=      5-min Rain = 0
KTIS 220140Z 18015KT 15/M05 A296 RMK A01 T01491049  RH  025%=      5-min Rain = 0
KTIS 220145Z 18016KT 15/M05 A296 RMK A01 T01511050  RH  025%=      5-min Rain = 0
KTIS 220150Z 18016KT 15/M05 A296 RMK A01 T01511049  RH  025%=      5-min Rain = 0
KTIS 220155Z 18016KT 15/M05 A296 RMK A01 T01521047  RH  025%=      5-min Rain = 0
KTIS 220200Z 18016KT 15/M05 A296 RMK A01 T01491045  RH  026%=      5-min Rain = 0
KTIS 220205Z 17016G21KT 15/M04 A296 RMK A01 T01491043  RH  026%=      5-min Rain = 0
KTIS 220210Z 18016G21KT 15/M04 A296 RMK A01 T01511041  RH  026%=      5-min Rain = 0
KTIS 220215Z 17016KT 15/M04 A296 RMK A01 T01491041  RH  027%=      5-min Rain = 0
KTIS 220220Z 17015KT 15/M04 A296 RMK A01 T01491041  RH  027%=      5-min Rain = 0
KTIS 220225Z 17014G19KT 15/M04 A296 RMK A01 T01471042  RH  027%=      5-min Rain = 0
KTIS 220230Z 18014G20KT 15/M04 A296 RMK A01 T01461043  RH  027%=      5-min Rain = 0
KTIS 220235Z 18015KT 15/M04 A296 RMK A01 T01471043  RH  027%=      5-min Rain = 0
KTIS 220240Z 18016KT 15/M04 A296 RMK A01 T01451042  RH  027%=      5-min Rain = 0
KTIS 220245Z 18016G22KT 14/M04 A296 RMK A01 T01431041  RH  028%=      5-min Rain = 0
KTIS 220250Z 18017G23KT 14/M04 A296 RMK A01 T01421040  RH  028%=      5-min Rain = 0
KTIS 220255Z 19019G25KT 14/M03 A296 RMK A01 T01421034  RH  029%=      5-min Rain = 0
KTIS 220300Z 18019KT 14/M03 A296 RMK A01 T01421027  RH  031%=      5-min Rain = 0
KTIS 220305Z 18021G27KT 14/M02 A296 RMK A01 T01401022  RH  033%=      5-min Rain = 0
KTIS 220310Z 18020G25KT 14/M02 A2959 RMK A01 T01381020  RH  034%=      5-min Rain = 0
KTIS 220315Z 18019G26KT 14/M02 A2959 RMK A01 T01391019  RH  034%=      5-min Rain = 0
KTIS 220320Z 19019KT 14/M02 A296 RMK A01 T01391018  RH  034%=      5-min Rain = 0
KTIS 220325Z 19017KT 14/M02 A296 RMK A01 T01371017  RH  035%=      5-min Rain = 0
KTIS 220330Z 18018KT 14/M02 A296 RMK A01 T01351015  RH  036%=      5-min Rain = 0
KTIS 220335Z 18018G23KT 13/M01 A296 RMK A01 T01331011  RH  037%=      5-min Rain = 0
KTIS 220340Z 18018KT 13/M01 A296 RMK A01 T01301009  RH  039%=      5-min Rain = 0
KTIS 220345Z 18019G25KT 13/M01 A296 RMK A01 T01281008  RH  039%=      5-min Rain = 0
KTIS 220350Z 18021KT 13/M01 A296 RMK A01 T01291006  RH  040%=      5-min Rain = 0
KTIS 220355Z 19020G26KT 13/M01 A296 RMK A01 T01301005  RH  040%=      5-min Rain = 0
KTIS 220400Z 19021G27KT 13/M01 A296 RMK A01 T01311005  RH  040%=      5-min Rain = 0
KTIS 220405Z 19019G24KT 13/M01 A2961 RMK A01 T01281005  RH  041%=      5-min Rain = 0
KTIS 220410Z 19019G24KT 13/M00 A2961 RMK A01 T01261004  RH  041%=      5-min Rain = 0
KTIS 220415Z 19020KT 12/M00 A2961 RMK A01 T01241004  RH  042%=      5-min Rain = 0
KTIS 220420Z 19020KT 12/M00 A2961 RMK A01 T01231004  RH  042%=      5-min Rain = 0
KTIS 220425Z 19020G25KT 12/M00 A2961 RMK A01 T01231004  RH  042%=      5-min Rain = 0
KTIS 220430Z 19018KT 12/M00 A2961 RMK A01 T01211004  RH  043%=      5-min Rain = 0
KTIS 220435Z 19018KT 12/M00 A2961 RMK A01 T01201004  RH  043%=      5-min Rain = 0
KTIS 220440Z 19017G22KT 12/M00 A2961 RMK A01 T01191004  RH  043%=      5-min Rain = 0
KTIS 220445Z 19018G23KT 12/M00 A2961 RMK A01 T01201004  RH  043%=      5-min Rain = 0
KTIS 220450Z 19020G25KT 12/M00 A296 RMK A01 T01201004  RH  043%=      5-min Rain = 0
KTIS 220455Z 19018G23KT 12/M00 A2961 RMK A01 T01191004  RH  043%=      5-min Rain = 0
KTIS 220500Z 19018KT 12/M00 A2961 RMK A01 T01181004  RH  044%=      5-min Rain = 0
KTIS 220505Z 19020G25KT 12/M00 A2961 RMK A01 T01181004  RH  043%=      5-min Rain = 0
KTIS 220510Z 20019G24KT 12/M00 A2961 RMK A01 T01171004  RH  044%=      5-min Rain = 0
KTIS 220515Z 20019KT 12/M00 A2961 RMK A01 T01161004  RH  044%=      5-min Rain = 0
KTIS 220520Z 20019KT 12/M00 A2961 RMK A01 T01151004  RH  044%=      5-min Rain = 0
KTIS 220525Z 20020G25KT 12/M00 A2961 RMK A01 T01151003  RH  045%=      5-min Rain = 0
KTIS 220530Z 20019KT 11/M00 A2961 RMK A01 T01131004  RH  045%=      5-min Rain = 0
KTIS 220535Z 20021G26KT 11/M00 A2961 RMK A01 T01131004  RH  045%=      5-min Rain = 0
KTIS 220540Z 20020G26KT 11/M00 A2961 RMK A01 T01131004  RH  045%=      5-min Rain = 0
KTIS 220545Z 20022G27KT 11/M00 A2961 RMK A01 T01121003  RH  045%=      5-min Rain = 0
KTIS 220550Z 20022G27KT 11/M00 A2961 RMK A01 T01111003  RH  046%=      5-min Rain = 0
KTIS 220555Z 20021G26KT 11/M00 A2961 RMK A01 T01091003  RH  046%=      5-min Rain = 0

Page generated in 0.0094 seconds.